createdAt,value
2019-01-22T00:00:08.000Z,27.9
2019-01-22T00:02:08.000Z,27.9
2019-01-22T00:03:08.000Z,27.9
2019-01-22T00:04:53.000Z,27.9
2019-01-22T00:06:08.000Z,27.9
2019-01-22T00:07:08.000Z,27.9
2019-01-22T00:09:08.000Z,27.9
2019-01-22T00:11:08.000Z,27.9
2019-01-22T00:12:08.000Z,27.9
2019-01-22T00:14:08.000Z,27.9
2019-01-22T00:15:08.000Z,27.9
2019-01-22T00:17:08.000Z,27.9
2019-01-22T00:18:08.000Z,27.9
2019-01-22T00:19:08.000Z,27.9
2019-01-22T00:20:53.000Z,27.9
2019-01-22T00:22:08.000Z,27.9
2019-01-22T00:23:08.000Z,27.9
2019-01-22T00:25:08.000Z,27.9
2019-01-22T00:27:08.000Z,27.9
2019-01-22T00:28:08.000Z,27.9
2019-01-22T00:30:08.000Z,27.9
2019-01-22T00:31:08.000Z,27.8
2019-01-22T00:33:08.000Z,27.8
2019-01-22T00:34:53.000Z,27.8
2019-01-22T00:36:08.000Z,27.8
2019-01-22T00:38:08.000Z,27.8
2019-01-22T00:40:08.000Z,27.9
2019-01-22T00:42:08.000Z,27.8
2019-01-22T00:44:08.000Z,27.8
2019-01-22T00:45:08.000Z,27.8
2019-01-22T00:47:08.000Z,27.8
2019-01-22T00:48:08.000Z,27.8
2019-01-22T00:50:08.000Z,27.8
2019-01-22T00:51:08.000Z,27.8
2019-01-22T00:52:08.000Z,27.8
2019-01-22T00:53:08.000Z,27.8
2019-01-22T00:55:08.000Z,27.8
2019-01-22T00:56:08.000Z,27.8
2019-01-22T00:58:08.000Z,27.8
2019-01-22T01:00:08.000Z,27.8
2019-01-22T01:01:53.000Z,27.8
2019-01-22T01:03:08.000Z,27.8
2019-01-22T01:04:08.000Z,27.8
2019-01-22T01:06:08.000Z,27.8
2019-01-22T01:08:08.000Z,27.8
2019-01-22T01:09:53.000Z,27.8
2019-01-22T01:11:08.000Z,27.8
2019-01-22T01:12:08.000Z,27.8
2019-01-22T01:13:53.000Z,27.8
2019-01-22T01:15:08.000Z,27.8
2019-01-22T01:16:08.000Z,27.8
2019-01-22T01:18:08.000Z,27.8
2019-01-22T01:20:08.000Z,27.7
2019-01-22T01:21:08.000Z,27.7
2019-01-22T01:22:08.000Z,27.7
2019-01-22T01:24:08.000Z,27.7
2019-01-22T01:26:08.000Z,27.7
2019-01-22T01:28:08.000Z,27.7
2019-01-22T01:29:08.000Z,27.7
2019-01-22T01:31:08.000Z,27.7
2019-01-22T01:33:08.000Z,27.7
2019-01-22T01:34:08.000Z,27.7
2019-01-22T01:36:08.000Z,27.8
2019-01-22T01:37:08.000Z,27.7
2019-01-22T01:39:08.000Z,27.7
2019-01-22T01:41:08.000Z,27.7
2019-01-22T01:42:53.000Z,27.7
2019-01-22T01:44:08.000Z,27.7
2019-01-22T01:45:08.000Z,27.7
2019-01-22T01:47:08.000Z,27.7
2019-01-22T01:49:08.000Z,27.7
2019-01-22T01:50:08.000Z,27.7
2019-01-22T01:51:53.000Z,27.7
2019-01-22T01:53:08.000Z,27.7
2019-01-22T01:55:08.000Z,27.7
2019-01-22T01:56:08.000Z,27.7
2019-01-22T01:57:08.000Z,27.7
2019-01-22T01:58:53.000Z,27.8
2019-01-22T02:00:08.000Z,27.7
2019-01-22T02:01:08.000Z,27.7
2019-01-22T02:03:08.000Z,27.7
2019-01-22T02:05:08.000Z,27.7
2019-01-22T02:06:53.000Z,27.7
2019-01-22T02:08:08.000Z,27.7
2019-01-22T02:09:08.000Z,27.7
2019-01-22T02:11:08.000Z,27.7
2019-01-22T02:13:08.000Z,27.7
2019-01-22T02:14:08.000Z,27.7
2019-01-22T02:16:08.000Z,27.7
2019-01-22T02:17:08.000Z,27.7
2019-01-22T02:18:53.000Z,27.7
2019-01-22T02:20:08.000Z,27.7
2019-01-22T02:21:08.000Z,27.7
2019-01-22T02:22:08.000Z,27.7
2019-01-22T02:23:08.000Z,27.7
2019-01-22T02:25:08.000Z,27.7
2019-01-22T02:27:08.000Z,27.7
2019-01-22T02:29:08.000Z,27.7
2019-01-22T02:30:08.000Z,27.7
2019-01-22T02:31:53.000Z,27.7
2019-01-22T02:33:08.000Z,27.7
2019-01-22T02:34:08.000Z,27.7
2019-01-22T02:35:53.000Z,27.7
2019-01-22T02:37:08.000Z,27.7
2019-01-22T02:39:08.000Z,27.7
2019-01-22T02:41:09.000Z,27.7
2019-01-22T02:42:09.000Z,27.7
2019-01-22T02:44:09.000Z,27.7
2019-01-22T02:45:53.000Z,27.6
2019-01-22T02:47:09.000Z,27.6
2019-01-22T02:49:09.000Z,27.6
2019-01-22T02:51:09.000Z,27.7
2019-01-22T02:53:09.000Z,27.7
2019-01-22T02:54:09.000Z,27.7
2019-01-22T02:56:09.000Z,27.7
2019-01-22T02:58:09.000Z,27.7
2019-01-22T02:59:09.000Z,27.7
2019-01-22T03:01:09.000Z,27.7
2019-01-22T03:03:09.000Z,27.6
2019-01-22T03:04:54.000Z,27.6
2019-01-22T03:06:09.000Z,27.6
2019-01-22T03:07:09.000Z,27.6
2019-01-22T03:09:09.000Z,27.6
2019-01-22T03:11:09.000Z,27.6
2019-01-22T03:12:09.000Z,27.6
2019-01-22T03:13:09.000Z,27.6
2019-01-22T03:15:09.000Z,27.6
2019-01-22T03:16:09.000Z,27.6
2019-01-22T03:18:09.000Z,27.6
2019-01-22T03:19:54.000Z,27.6
2019-01-22T03:21:09.000Z,27.6
2019-01-22T03:23:09.000Z,27.6
2019-01-22T03:24:09.000Z,27.6
2019-01-22T03:26:09.000Z,27.6
2019-01-22T03:27:53.000Z,27.6
2019-01-22T03:29:09.000Z,27.6
2019-01-22T03:31:09.000Z,27.6
2019-01-22T03:32:09.000Z,27.6
2019-01-22T03:34:09.000Z,27.6
2019-01-22T03:36:09.000Z,27.6
2019-01-22T03:37:53.000Z,27.6
2019-01-22T03:38:54.000Z,27.6
2019-01-22T03:40:09.000Z,27.6
2019-01-22T03:41:09.000Z,27.6
2019-01-22T03:43:09.000Z,27.6
2019-01-22T03:45:09.000Z,27.6
2019-01-22T03:46:09.000Z,27.6
2019-01-22T03:48:09.000Z,27.6
2019-01-22T03:49:09.000Z,27.6
2019-01-22T03:51:09.000Z,27.6
2019-01-22T03:53:09.000Z,27.6
2019-01-22T03:54:09.000Z,27.6
2019-01-22T03:55:54.000Z,27.6
2019-01-22T03:57:09.000Z,27.6
2019-01-22T03:58:09.000Z,27.6
2019-01-22T04:00:09.000Z,27.6
2019-01-22T04:02:09.000Z,27.6
2019-01-22T04:03:09.000Z,27.6
2019-01-22T04:04:54.000Z,27.6
2019-01-22T04:06:09.000Z,27.6
2019-01-22T04:08:09.000Z,27.6
2019-01-22T04:10:09.000Z,27.5
2019-01-22T04:11:09.000Z,27.6
2019-01-22T04:12:54.000Z,27.6
2019-01-22T04:14:09.000Z,27.6
2019-01-22T04:15:09.000Z,27.6
2019-01-22T04:17:09.000Z,27.6
2019-01-22T04:19:09.000Z,27.6
2019-01-22T04:20:54.000Z,27.6
2019-01-22T04:22:09.000Z,27.6
2019-01-22T04:23:54.000Z,27.5
2019-01-22T04:26:09.000Z,27.5
2019-01-22T04:27:09.000Z,27.5
2019-01-22T04:29:09.000Z,27.5
2019-01-22T04:31:09.000Z,27.5
2019-01-22T04:32:09.000Z,27.5
2019-01-22T04:34:09.000Z,27.5
2019-01-22T04:36:09.000Z,27.5
2019-01-22T04:37:54.000Z,27.5
2019-01-22T04:39:09.000Z,27.5
2019-01-22T04:41:09.000Z,27.5
2019-01-22T04:42:09.000Z,27.5
2019-01-22T04:43:09.000Z,27.5
2019-01-22T04:45:09.000Z,27.5
2019-01-22T04:46:09.000Z,27.5
2019-01-22T04:48:09.000Z,27.5
2019-01-22T04:49:09.000Z,27.5
2019-01-22T04:51:09.000Z,27.5
2019-01-22T04:53:09.000Z,27.5
2019-01-22T04:54:09.000Z,27.5
2019-01-22T04:56:09.000Z,27.5
2019-01-22T04:58:09.000Z,27.5
2019-01-22T05:00:09.000Z,27.5
2019-01-22T05:02:09.000Z,27.5
2019-01-22T05:03:54.000Z,27.5
2019-01-22T05:05:09.000Z,27.5
2019-01-22T05:06:09.000Z,27.5
2019-01-22T05:08:09.000Z,27.5
2019-01-22T05:10:09.000Z,27.5
2019-01-22T05:11:09.000Z,27.5
2019-01-22T05:12:54.000Z,27.5
2019-01-22T05:14:09.000Z,27.5
2019-01-22T05:15:09.000Z,27.5
2019-01-22T05:16:09.000Z,27.5
2019-01-22T05:18:09.000Z,27.5
2019-01-22T05:19:09.000Z,27.5
2019-01-22T05:20:54.000Z,27.5
2019-01-22T05:22:09.000Z,27.5
2019-01-22T05:23:09.000Z,27.5
2019-01-22T05:25:09.000Z,27.5
2019-01-22T05:27:09.000Z,27.5
2019-01-22T05:28:09.000Z,27.5
2019-01-22T05:29:54.000Z,27.4
2019-01-22T05:31:09.000Z,27.4
2019-01-22T05:32:09.000Z,27.4
2019-01-22T05:34:09.000Z,27.3
2019-01-22T05:36:09.000Z,27.3
2019-01-22T05:37:54.000Z,27.3
2019-01-22T05:39:09.000Z,27.3
2019-01-22T05:41:09.000Z,27.4
2019-01-22T05:42:09.000Z,27.4
2019-01-22T05:44:09.000Z,27.4
2019-01-22T05:45:09.000Z,27.4
2019-01-22T05:46:53.000Z,27.4
2019-01-22T05:48:09.000Z,27.5
2019-01-22T05:50:09.000Z,27.5
2019-01-22T05:52:09.000Z,27.6
2019-01-22T05:53:09.000Z,27.6
2019-01-22T05:55:08.000Z,27.7
2019-01-22T05:56:08.000Z,27.7
2019-01-22T05:58:08.000Z,27.8
2019-01-22T05:59:53.000Z,27.8
2019-01-22T06:01:08.000Z,27.8
2019-01-22T06:03:08.000Z,27.9
2019-01-22T06:04:08.000Z,27.9
2019-01-22T06:05:08.000Z,27.9
2019-01-22T06:07:08.000Z,28
2019-01-22T06:08:08.000Z,28
2019-01-22T06:10:08.000Z,28
2019-01-22T06:12:08.000Z,28.1
2019-01-22T06:14:08.000Z,28.1
2019-01-22T06:16:08.000Z,28.2
2019-01-22T06:18:08.000Z,28.2
2019-01-22T06:19:08.000Z,28.2
2019-01-22T06:20:53.000Z,28.3
2019-01-22T06:22:08.000Z,28.3
2019-01-22T06:23:08.000Z,28.3
2019-01-22T06:24:08.000Z,28.3
2019-01-22T06:26:08.000Z,28.4
2019-01-22T06:27:08.000Z,28.4
2019-01-22T06:28:08.000Z,28.4
2019-01-22T06:29:08.000Z,28.4
2019-01-22T06:31:08.000Z,28.5
2019-01-22T06:32:08.000Z,28.5
2019-01-22T06:34:08.000Z,28.5
2019-01-22T06:35:08.000Z,28.5
2019-01-22T06:37:08.000Z,28.5
2019-01-22T06:39:08.000Z,28.5
2019-01-22T06:41:08.000Z,28.5
2019-01-22T06:42:53.000Z,28.5
2019-01-22T06:44:08.000Z,28.5
2019-01-22T06:45:08.000Z,28.5
2019-01-22T06:47:08.000Z,28.5
2019-01-22T06:48:08.000Z,28.5
2019-01-22T06:50:08.000Z,28.6
2019-01-22T06:51:08.000Z,28.5
2019-01-22T06:52:53.000Z,28.5
2019-01-22T06:54:08.000Z,28.5
2019-01-22T06:55:08.000Z,28.5
2019-01-22T06:57:08.000Z,28.5
2019-01-22T06:58:08.000Z,28.5
2019-01-22T07:00:08.000Z,28.5
2019-01-22T07:01:08.000Z,28.5
2019-01-22T07:03:08.000Z,28.5
2019-01-22T07:04:53.000Z,28.5
2019-01-22T07:06:08.000Z,28.5
2019-01-22T07:07:08.000Z,28.5
2019-01-22T07:09:08.000Z,28.5
2019-01-22T07:11:08.000Z,28.5
2019-01-22T07:13:08.000Z,28.5
2019-01-22T07:14:08.000Z,28.5
2019-01-22T07:16:08.000Z,28.4
2019-01-22T07:17:08.000Z,27.9
2019-01-22T07:19:08.000Z,26.8
2019-01-22T07:21:08.000Z,25.9
2019-01-22T07:23:08.000Z,25.1
2019-01-22T07:24:08.000Z,24.6
2019-01-22T07:26:08.000Z,24
2019-01-22T07:27:08.000Z,23.8
2019-01-22T07:29:08.000Z,23.5
2019-01-22T07:31:08.000Z,23.2
2019-01-22T07:32:08.000Z,23
2019-01-22T07:34:08.000Z,22.6
2019-01-22T07:36:08.000Z,22
2019-01-22T07:37:08.000Z,21.8
2019-01-22T07:39:08.000Z,22.2
2019-01-22T07:41:08.000Z,22.9
2019-01-22T07:42:08.000Z,23.2
2019-01-22T07:44:08.000Z,23.9
2019-01-22T07:46:08.000Z,24.5
2019-01-22T07:47:08.000Z,24.7
2019-01-22T07:48:08.000Z,25
2019-01-22T07:50:08.000Z,25.4
2019-01-22T07:51:08.000Z,25.6
2019-01-22T07:53:08.000Z,26
2019-01-22T07:54:08.000Z,26.2
2019-01-22T07:56:08.000Z,26.5
2019-01-22T07:57:08.000Z,26.6
2019-01-22T07:59:08.000Z,26.9
2019-01-22T08:00:08.000Z,27
2019-01-22T08:01:08.000Z,27.1
2019-01-22T08:02:08.000Z,27.1
2019-01-22T08:04:08.000Z,27.3
2019-01-22T08:05:08.000Z,27.4
2019-01-22T08:07:08.000Z,27.6
2019-01-22T08:08:08.000Z,27.6
2019-01-22T08:10:08.000Z,27.8
2019-01-22T08:11:08.000Z,27.8
2019-01-22T08:13:08.000Z,28
2019-01-22T08:14:53.000Z,28
2019-01-22T08:16:08.000Z,28.1
2019-01-22T08:17:08.000Z,28.2
2019-01-22T08:19:08.000Z,28.3
2019-01-22T08:20:08.000Z,28.3
2019-01-22T08:22:08.000Z,28.4
2019-01-22T08:24:08.000Z,28.5
2019-01-22T08:26:08.000Z,28.5
2019-01-22T08:27:08.000Z,28.6
2019-01-22T08:29:08.000Z,28.7
2019-01-22T08:30:08.000Z,28.7
2019-01-22T08:31:08.000Z,28.8
2019-01-22T08:32:08.000Z,28.8
2019-01-22T08:33:53.000Z,28.9
2019-01-22T08:35:08.000Z,29
2019-01-22T08:36:08.000Z,29
2019-01-22T08:37:08.000Z,29
2019-01-22T08:38:08.000Z,29.1
2019-01-22T08:40:08.000Z,29.2
2019-01-22T08:41:08.000Z,29.2
2019-01-22T08:43:08.000Z,29.3
2019-01-22T08:44:53.000Z,29.4
2019-01-22T08:46:08.000Z,29.5
2019-01-22T08:48:08.000Z,29.5
2019-01-22T08:50:08.000Z,29.5
2019-01-22T08:52:08.000Z,29.6
2019-01-22T08:54:08.000Z,29.6
2019-01-22T08:56:08.000Z,29.7
2019-01-22T08:57:53.000Z,29.7
2019-01-22T08:59:08.000Z,29.8
2019-01-22T09:00:08.000Z,29.8
2019-01-22T09:01:08.000Z,29.8
2019-01-22T09:03:08.000Z,29.7
2019-01-22T09:05:08.000Z,29.6
2019-01-22T09:07:08.000Z,29.5
2019-01-22T09:09:09.000Z,29.5
2019-01-22T09:10:09.000Z,29.4
2019-01-22T09:12:09.000Z,29.4
2019-01-22T09:13:53.000Z,29.4
2019-01-22T09:15:09.000Z,29.3
2019-01-22T09:16:09.000Z,29.3
2019-01-22T09:18:09.000Z,29.3
2019-01-22T09:19:09.000Z,29.3
2019-01-22T09:21:09.000Z,29.3
2019-01-22T09:22:09.000Z,29.3
2019-01-22T09:24:09.000Z,29.3
2019-01-22T09:25:09.000Z,29.3
2019-01-22T09:27:09.000Z,29.3
2019-01-22T09:28:53.000Z,29.3
2019-01-22T09:30:09.000Z,29.3
2019-01-22T09:31:09.000Z,29.3
2019-01-22T09:33:09.000Z,29.3
2019-01-22T09:35:09.000Z,29.3
2019-01-22T09:37:09.000Z,29.3
2019-01-22T09:38:09.000Z,29.3
2019-01-22T09:39:09.000Z,29.3
2019-01-22T09:41:09.000Z,29.3
2019-01-22T09:42:09.000Z,29.3
2019-01-22T09:44:09.000Z,29.3
2019-01-22T09:45:09.000Z,29.4
2019-01-22T09:47:09.000Z,29.4
2019-01-22T09:49:09.000Z,29.4
2019-01-22T09:51:09.000Z,29.4
2019-01-22T09:53:09.000Z,29.4
2019-01-22T09:54:09.000Z,29.4
2019-01-22T09:55:54.000Z,29.4
2019-01-22T09:58:09.000Z,29.4
2019-01-22T10:00:09.000Z,29.4
2019-01-22T10:01:09.000Z,29.4
2019-01-22T10:02:09.000Z,29.5
2019-01-22T10:04:09.000Z,29.5
2019-01-22T10:06:09.000Z,29.5
2019-01-22T10:08:09.000Z,29.5
2019-01-22T10:09:09.000Z,29.5
2019-01-22T10:10:09.000Z,29.5
2019-01-22T10:12:08.000Z,29.5
2019-01-22T10:13:08.000Z,29.5
2019-01-22T10:15:08.000Z,29.5
2019-01-22T10:16:08.000Z,29.5
2019-01-22T10:18:08.000Z,29.5
2019-01-22T10:20:08.000Z,29.5
2019-01-22T10:21:08.000Z,29.6
2019-01-22T10:22:08.000Z,29.6
2019-01-22T10:23:08.000Z,29.6
2019-01-22T10:24:08.000Z,29.6
2019-01-22T10:26:08.000Z,29.6
2019-01-22T10:28:08.000Z,29.6
2019-01-22T10:30:08.000Z,29.6
2019-01-22T10:32:08.000Z,29.6
2019-01-22T10:33:53.000Z,29.6
2019-01-22T10:35:08.000Z,29.6
2019-01-22T10:37:08.000Z,29.7
2019-01-22T10:38:08.000Z,29.7
2019-01-22T10:40:08.000Z,29.7
2019-01-22T10:41:08.000Z,29.7
2019-01-22T10:43:08.000Z,29.7
2019-01-22T10:44:08.000Z,29.7
2019-01-22T10:45:08.000Z,29.7
2019-01-22T10:46:53.000Z,29.7
2019-01-22T10:48:08.000Z,29.8
2019-01-22T10:50:08.000Z,29.8
2019-01-22T10:52:08.000Z,29.8
2019-01-22T10:54:08.000Z,29.8
2019-01-22T10:56:08.000Z,29.8
2019-01-22T10:58:08.000Z,29.8
2019-01-22T10:59:08.000Z,29.8
2019-01-22T11:01:08.000Z,29.8
2019-01-22T11:03:08.000Z,29.8
2019-01-22T11:05:08.000Z,29.9
2019-01-22T11:07:08.000Z,29.8
2019-01-22T11:09:08.000Z,29.8
2019-01-22T11:10:08.000Z,29.8
2019-01-22T11:12:08.000Z,29.9
2019-01-22T11:14:08.000Z,29.9
2019-01-22T11:16:08.000Z,29.8
2019-01-22T11:17:09.000Z,29.8
2019-01-22T11:19:09.000Z,29.9
2019-01-22T11:20:54.000Z,29.9
2019-01-22T11:21:54.000Z,29.9
2019-01-22T11:23:09.000Z,29.9
2019-01-22T11:25:09.000Z,29.9
2019-01-22T11:27:09.000Z,30
2019-01-22T11:28:09.000Z,30
2019-01-22T11:29:09.000Z,29.9
2019-01-22T11:31:09.000Z,30
2019-01-22T11:32:09.000Z,30
2019-01-22T11:34:09.000Z,30
2019-01-22T11:36:09.000Z,30
2019-01-22T11:38:09.000Z,30
2019-01-22T11:40:09.000Z,30
2019-01-22T11:42:09.000Z,30.1
2019-01-22T11:44:09.000Z,30.1
2019-01-22T11:46:09.000Z,30.1
2019-01-22T11:47:09.000Z,30.1
2019-01-22T11:48:09.000Z,30.1
2019-01-22T11:50:09.000Z,30.1
2019-01-22T11:52:09.000Z,30.2
2019-01-22T11:54:09.000Z,30.2
2019-01-22T11:55:09.000Z,30.2
2019-01-22T11:57:09.000Z,30.3
2019-01-22T11:58:09.000Z,30.4
2019-01-22T11:59:09.000Z,30.4
2019-01-22T12:00:09.000Z,30.4
2019-01-22T12:02:09.000Z,30.4
2019-01-22T12:04:09.000Z,30.5
2019-01-22T12:06:09.000Z,30.5
2019-01-22T12:08:09.000Z,30.5
2019-01-22T12:09:09.000Z,30.6
2019-01-22T12:11:09.000Z,30.6
2019-01-22T12:12:09.000Z,30.6
2019-01-22T12:14:09.000Z,30.5
2019-01-22T12:16:09.000Z,30.5
2019-01-22T12:17:09.000Z,30.5
2019-01-22T12:18:09.000Z,30.5
2019-01-22T12:20:09.000Z,30.6
2019-01-22T12:22:08.000Z,30.6
2019-01-22T12:24:08.000Z,30.6
2019-01-22T12:25:53.000Z,30.6
2019-01-22T12:27:08.000Z,30.6
2019-01-22T12:28:08.000Z,30.7
2019-01-22T12:30:08.000Z,30.7
2019-01-22T12:32:08.000Z,30.7
2019-01-22T12:33:08.000Z,30.7
2019-01-22T12:34:53.000Z,30.7
2019-01-22T12:36:08.000Z,30.7
2019-01-22T12:37:08.000Z,30.8
2019-01-22T12:38:08.000Z,30.8
2019-01-22T12:40:08.000Z,30.8
2019-01-22T12:41:08.000Z,30.8
2019-01-22T12:43:08.000Z,30.8
2019-01-22T12:44:08.000Z,30.8
2019-01-22T12:45:53.000Z,30.8
2019-01-22T12:47:08.000Z,30.8
2019-01-22T12:48:08.000Z,30.8
2019-01-22T12:49:08.000Z,30.8
2019-01-22T12:51:08.000Z,30.8
2019-01-22T12:52:08.000Z,30.8
2019-01-22T12:53:08.000Z,30.8
2019-01-22T12:55:08.000Z,30.9
2019-01-22T12:56:08.000Z,30.9
2019-01-22T12:58:08.000Z,30.9
2019-01-22T12:59:08.000Z,30.9
2019-01-22T13:00:08.000Z,30.8
2019-01-22T13:02:08.000Z,30.9
2019-01-22T13:04:08.000Z,30.9
2019-01-22T13:06:08.000Z,30.9
2019-01-22T13:07:08.000Z,30.9
2019-01-22T13:08:08.000Z,30.9
2019-01-22T13:10:08.000Z,30.9
2019-01-22T13:11:08.000Z,30.9
2019-01-22T13:13:08.000Z,31
2019-01-22T13:14:08.000Z,31
2019-01-22T13:15:53.000Z,31.1
2019-01-22T13:17:08.000Z,31.2
2019-01-22T13:18:08.000Z,31.3
2019-01-22T13:20:08.000Z,31.3
2019-01-22T13:22:08.000Z,31.4
2019-01-22T13:24:08.000Z,31.4
2019-01-22T13:25:08.000Z,31.5
2019-01-22T13:26:08.000Z,31.5
2019-01-22T13:28:08.000Z,31.5
2019-01-22T13:29:08.000Z,31.5
2019-01-22T13:31:08.000Z,31.5
2019-01-22T13:32:08.000Z,31.5
2019-01-22T13:34:08.000Z,31.6
2019-01-22T13:35:08.000Z,31.6
2019-01-22T13:36:08.000Z,31.6
2019-01-22T13:38:08.000Z,31.6
2019-01-22T13:39:08.000Z,31.6
2019-01-22T13:40:08.000Z,31.6
2019-01-22T13:42:08.000Z,31.6
2019-01-22T13:43:08.000Z,31.6
2019-01-22T13:45:08.000Z,31.6
2019-01-22T13:46:08.000Z,31.6
2019-01-22T13:47:08.000Z,31.6
2019-01-22T13:48:53.000Z,31.6
2019-01-22T13:50:08.000Z,31.6
2019-01-22T13:51:08.000Z,31.6
2019-01-22T13:53:08.000Z,31.6
2019-01-22T13:54:53.000Z,31.6
2019-01-22T13:56:08.000Z,31.6
2019-01-22T13:58:08.000Z,31.6
2019-01-22T14:00:08.000Z,31.6
2019-01-22T14:02:08.000Z,31.6
2019-01-22T14:03:53.000Z,31.6
2019-01-22T14:05:08.000Z,31.6
2019-01-22T14:07:08.000Z,31.6
2019-01-22T14:08:08.000Z,31.6
2019-01-22T14:09:08.000Z,31.6
2019-01-22T14:11:08.000Z,31.6
2019-01-22T14:13:08.000Z,31.6
2019-01-22T14:15:08.000Z,31.6
2019-01-22T14:16:08.000Z,31.6
2019-01-22T14:17:08.000Z,31.5
2019-01-22T14:19:08.000Z,31.4
2019-01-22T14:21:08.000Z,31.3
2019-01-22T14:22:08.000Z,31.3
2019-01-22T14:23:08.000Z,31.2
2019-01-22T14:25:08.000Z,31.2
2019-01-22T14:26:08.000Z,31.2
2019-01-22T14:28:08.000Z,31.3
2019-01-22T14:30:09.000Z,31.3
2019-01-22T14:31:09.000Z,31.3
2019-01-22T14:32:54.000Z,31.4
2019-01-22T14:34:09.000Z,31.4
2019-01-22T14:35:09.000Z,31.4
2019-01-22T14:36:54.000Z,31.4
2019-01-22T14:38:09.000Z,31.4
2019-01-22T14:40:09.000Z,31.4
2019-01-22T14:42:09.000Z,31.4
2019-01-22T14:44:09.000Z,31.3
2019-01-22T14:45:09.000Z,31.3
2019-01-22T14:47:09.000Z,31.3
2019-01-22T14:48:09.000Z,31.3
2019-01-22T14:49:09.000Z,31.3
2019-01-22T14:51:09.000Z,31.3
2019-01-22T14:52:09.000Z,31.3
2019-01-22T14:54:09.000Z,31.2
2019-01-22T14:55:09.000Z,31.2
2019-01-22T14:57:09.000Z,31.2
2019-01-22T14:59:09.000Z,31.1
2019-01-22T15:00:09.000Z,31.1
2019-01-22T15:01:09.000Z,31.1
2019-01-22T15:02:54.000Z,31.1
2019-01-22T15:04:09.000Z,31.1
2019-01-22T15:05:09.000Z,31
2019-01-22T15:06:09.000Z,31
2019-01-22T15:08:09.000Z,31
2019-01-22T15:10:09.000Z,31
2019-01-22T15:11:09.000Z,31
2019-01-22T15:13:09.000Z,30.9
2019-01-22T15:15:09.000Z,30.9
2019-01-22T15:17:09.000Z,30.9
2019-01-22T15:19:09.000Z,30.8
2019-01-22T15:20:09.000Z,30.8
2019-01-22T15:22:09.000Z,30.8
2019-01-22T15:24:09.000Z,30.8
2019-01-22T15:26:09.000Z,30.8
2019-01-22T15:27:54.000Z,30.8
2019-01-22T15:29:09.000Z,30.7
2019-01-22T15:30:09.000Z,30.7
2019-01-22T15:32:09.000Z,30.7
2019-01-22T15:34:08.000Z,30.7
2019-01-22T15:36:08.000Z,30.6
2019-01-22T15:37:53.000Z,30.5
2019-01-22T15:38:53.000Z,30.6
2019-01-22T15:41:08.000Z,30.6
2019-01-22T15:42:08.000Z,30.5
2019-01-22T15:44:08.000Z,30.5
2019-01-22T15:46:08.000Z,30.5
2019-01-22T15:47:08.000Z,30.5
2019-01-22T15:49:08.000Z,30.5
2019-01-22T15:51:08.000Z,30.4
2019-01-22T15:52:08.000Z,30.4
2019-01-22T15:54:08.000Z,30.4
2019-01-22T15:55:08.000Z,30.4
2019-01-22T15:57:08.000Z,30.3
2019-01-22T15:58:08.000Z,30.3
2019-01-22T15:59:53.000Z,30.3
2019-01-22T16:01:08.000Z,30.3
2019-01-22T16:02:08.000Z,30.3
2019-01-22T16:04:08.000Z,30.3
2019-01-22T16:05:08.000Z,30.3
2019-01-22T16:07:08.000Z,30.3
2019-01-22T16:08:08.000Z,30.3
2019-01-22T16:10:08.000Z,30.3
2019-01-22T16:12:08.000Z,30.2
2019-01-22T16:14:08.000Z,30.2
2019-01-22T16:15:08.000Z,30.2
2019-01-22T16:17:08.000Z,30.2
2019-01-22T16:19:08.000Z,30.2
2019-01-22T16:21:08.000Z,30.1
2019-01-22T16:23:08.000Z,30.1
2019-01-22T16:25:08.000Z,30.1
2019-01-22T16:26:08.000Z,30.1
2019-01-22T16:28:08.000Z,30.1
2019-01-22T16:29:08.000Z,30.1
2019-01-22T16:30:08.000Z,30.1
2019-01-22T16:32:08.000Z,30.1
2019-01-22T16:33:08.000Z,30
2019-01-22T16:35:08.000Z,30
2019-01-22T16:36:08.000Z,30
2019-01-22T16:38:09.000Z,30
2019-01-22T16:40:09.000Z,30
2019-01-22T16:42:09.000Z,30
2019-01-22T16:44:09.000Z,30
2019-01-22T16:45:09.000Z,30
2019-01-22T16:47:09.000Z,29.9
2019-01-22T16:49:09.000Z,30
2019-01-22T16:51:09.000Z,29.9
2019-01-22T16:52:09.000Z,29.9
2019-01-22T16:53:54.000Z,29.9
2019-01-22T16:55:09.000Z,29.9
2019-01-22T16:56:54.000Z,29.9
2019-01-22T16:58:09.000Z,29.9
2019-01-22T16:59:09.000Z,29.9
2019-01-22T17:00:09.000Z,29.9
2019-01-22T17:02:09.000Z,29.9
2019-01-22T17:04:09.000Z,29.9
2019-01-22T17:05:09.000Z,29.8
2019-01-22T17:06:09.000Z,29.8
2019-01-22T17:07:54.000Z,29.8
2019-01-22T17:09:09.000Z,29.8
2019-01-22T17:11:09.000Z,29.8
2019-01-22T17:12:09.000Z,29.8
2019-01-22T17:13:09.000Z,29.8
2019-01-22T17:15:09.000Z,29.8
2019-01-22T17:16:09.000Z,29.8
2019-01-22T17:18:09.000Z,29.8
2019-01-22T17:20:09.000Z,29.7
2019-01-22T17:21:09.000Z,29.7
2019-01-22T17:23:09.000Z,29.7
2019-01-22T17:25:09.000Z,29.7
2019-01-22T17:27:09.000Z,29.7
2019-01-22T17:29:09.000Z,29.7
2019-01-22T17:31:09.000Z,29.7
2019-01-22T17:32:09.000Z,29.7
2019-01-22T17:34:09.000Z,29.7
2019-01-22T17:35:09.000Z,29.7
2019-01-22T17:36:09.000Z,29.7
2019-01-22T17:38:09.000Z,29.7
2019-01-22T17:39:09.000Z,29.7
2019-01-22T17:41:09.000Z,29.7
2019-01-22T17:43:09.000Z,29.6
2019-01-22T17:44:09.000Z,29.6
2019-01-22T17:45:54.000Z,29.6
2019-01-22T17:47:09.000Z,29.6
2019-01-22T17:49:09.000Z,29.6
2019-01-22T17:51:09.000Z,29.6
2019-01-22T17:52:09.000Z,29.6
2019-01-22T17:53:09.000Z,29.6
2019-01-22T17:55:09.000Z,29.6
2019-01-22T17:56:09.000Z,29.6
2019-01-22T17:58:09.000Z,29.5
2019-01-22T17:59:09.000Z,29.5
2019-01-22T18:00:09.000Z,29.5
2019-01-22T18:02:09.000Z,29.5
2019-01-22T18:03:09.000Z,29.5
2019-01-22T18:05:09.000Z,29.5
2019-01-22T18:06:09.000Z,29.5
2019-01-22T18:08:09.000Z,29.5
2019-01-22T18:09:09.000Z,29.5
2019-01-22T18:11:09.000Z,29.5
2019-01-22T18:12:54.000Z,29.5
2019-01-22T18:14:09.000Z,29.5
2019-01-22T18:16:09.000Z,29.5
2019-01-22T18:17:09.000Z,29.5
2019-01-22T18:18:09.000Z,29.5
2019-01-22T18:19:09.000Z,29.5
2019-01-22T18:20:09.000Z,29.5
2019-01-22T18:21:09.000Z,29.5
2019-01-22T18:23:09.000Z,29.5
2019-01-22T18:25:09.000Z,29.4
2019-01-22T18:27:09.000Z,29.4
2019-01-22T18:28:09.000Z,29.4
2019-01-22T18:30:09.000Z,29.4
2019-01-22T18:31:09.000Z,29.4
2019-01-22T18:33:09.000Z,29.4
2019-01-22T18:34:09.000Z,29.4
2019-01-22T18:36:09.000Z,29.4
2019-01-22T18:38:09.000Z,29.4
2019-01-22T18:39:09.000Z,29.4
2019-01-22T18:40:09.000Z,29.4
2019-01-22T18:42:09.000Z,29.3
2019-01-22T18:43:09.000Z,29.3
2019-01-22T18:45:09.000Z,29.3
2019-01-22T18:46:09.000Z,29.4
2019-01-22T18:48:09.000Z,29.3
2019-01-22T18:49:09.000Z,29.3
2019-01-22T18:50:54.000Z,29.3
2019-01-22T18:52:09.000Z,29.3
2019-01-22T18:54:09.000Z,29.3
2019-01-22T18:55:09.000Z,29.3
2019-01-22T18:56:09.000Z,29.3
2019-01-22T18:58:09.000Z,29.3
2019-01-22T19:00:09.000Z,29.3
2019-01-22T19:01:09.000Z,29.3
2019-01-22T19:02:09.000Z,29.3
2019-01-22T19:03:09.000Z,29.3
2019-01-22T19:05:09.000Z,29.3
2019-01-22T19:06:54.000Z,29.3
2019-01-22T19:08:09.000Z,29.3
2019-01-22T19:09:09.000Z,29.3
2019-01-22T19:11:09.000Z,29.3
2019-01-22T19:12:09.000Z,29.3
2019-01-22T19:13:54.000Z,29.3
2019-01-22T19:16:09.000Z,29.2
2019-01-22T19:17:09.000Z,29.2
2019-01-22T19:19:09.000Z,29.2
2019-01-22T19:20:09.000Z,29.2
2019-01-22T19:21:54.000Z,29.2
2019-01-22T19:23:09.000Z,29.2
2019-01-22T19:24:09.000Z,29.2
2019-01-22T19:26:09.000Z,29.2
2019-01-22T19:27:09.000Z,29.3
2019-01-22T19:28:09.000Z,29.3
2019-01-22T19:29:09.000Z,29.3
2019-01-22T19:31:09.000Z,29.2
2019-01-22T19:32:09.000Z,29.2
2019-01-22T19:34:09.000Z,29.2
2019-01-22T19:36:09.000Z,29.2
2019-01-22T19:37:09.000Z,29.2
2019-01-22T19:38:09.000Z,29.2
2019-01-22T19:40:09.000Z,29.2
2019-01-22T19:42:09.000Z,29.2
2019-01-22T19:43:09.000Z,29.2
2019-01-22T19:45:09.000Z,29.2
2019-01-22T19:47:09.000Z,29.2
2019-01-22T19:48:09.000Z,29.2
2019-01-22T19:49:09.000Z,29.1
2019-01-22T19:51:09.000Z,29.2
2019-01-22T19:52:09.000Z,29.1
2019-01-22T19:54:09.000Z,29.1
2019-01-22T19:55:09.000Z,29.1
2019-01-22T19:57:09.000Z,29.1
2019-01-22T19:58:09.000Z,29.1
2019-01-22T20:00:09.000Z,29.1
2019-01-22T20:01:09.000Z,29.1
2019-01-22T20:03:09.000Z,29.1
2019-01-22T20:05:09.000Z,29.1
2019-01-22T20:07:09.000Z,29.1
2019-01-22T20:09:09.000Z,29
2019-01-22T20:10:09.000Z,29
2019-01-22T20:11:54.000Z,29
2019-01-22T20:13:09.000Z,29
2019-01-22T20:14:09.000Z,29
2019-01-22T20:16:09.000Z,29
2019-01-22T20:17:54.000Z,29
2019-01-22T20:19:09.000Z,29
2019-01-22T20:20:09.000Z,29
2019-01-22T20:22:09.000Z,29
2019-01-22T20:23:09.000Z,29
2019-01-22T20:25:09.000Z,29
2019-01-22T20:27:09.000Z,29
2019-01-22T20:28:09.000Z,29
2019-01-22T20:30:09.000Z,29
2019-01-22T20:32:09.000Z,29
2019-01-22T20:34:09.000Z,28.9
2019-01-22T20:36:09.000Z,28.9
2019-01-22T20:38:09.000Z,28.9
2019-01-22T20:40:09.000Z,28.9
2019-01-22T20:41:09.000Z,28.9
2019-01-22T20:42:09.000Z,28.9
2019-01-22T20:43:09.000Z,28.9